Terminal Aerodrome Forecast
Issued by NWS

Home | Current Version | Previous Version | Text Only | Print | Product List | Glossary On
Versions: 1 2 3 4 5 6 7 8 9 10 11 12 13 14 15 16 17 18 19 20 21 22 23 24
000
FTUS45 KREV 010521
TAFCXP
TAF
KCXP 010521Z 0106/0206 VRB03KT P6SM FEW100 SCT200
     FM011700 08009KT P6SM SCT100 BKN200
     FM012100 20009KT P6SM VCSH BKN100 BKN200
     FM020300 26008KT P6SM SCT100 BKN200=

USA.gov is the U.S. government's official web portal to all federal, state and local government web resources and services.